Time;durP1;ratioP1;P1;durP2;ratioP2;P2;SDS_P1;SDS_P2;PMS_P1;PMS_P2;Temp;Humidity;BMP_temperature;BMP_pressure;BME280_temperature;BME280_humidity;BME280_pressure;Samples;Min_cycle;Max_cycle;Signal;HPM_P1;HPM_P2
2023/06/23 00:00:25;;;;;;;3.63;3.20;;;19.60;99.90;;;;;;5092927;28;20439;-69
2023/06/23 00:02:51;;;;;;;4.00;3.60;;;19.60;99.90;;;;;;5094256;28;20407;-72
2023/06/23 00:05:20;;;;;;;3.80;3.50;;;19.60;99.90;;;;;;5095592;28;20402;-70
2023/06/23 00:07:46;;;;;;;4.33;3.43;;;19.60;1.00;;;;;;5095439;28;20439;-70
2023/06/23 00:10:13;;;;;;;3.80;3.50;;;19.60;1.00;;;;;;5094458;28;20965;-69
2023/06/23 00:12:42;;;;;;;3.80;3.50;;;19.60;1.00;;;;;;5094135;28;20396;-69
2023/06/23 00:15:13;;;;;;;3.70;3.40;;;19.70;1.00;;;;;;5095298;28;20759;-70
2023/06/23 00:17:43;;;;;;;3.60;3.30;;;19.60;1.00;;;;;;5095098;28;20408;-70
2023/06/23 00:20:13;;;;;;;6.00;3.60;;;19.60;1.00;;;;;;5092954;28;20430;-70
2023/06/23 00:22:40;;;;;;;3.77;3.47;;;19.70;1.00;;;;;;5094665;28;20491;-72
2023/06/23 00:25:10;;;;;;;4.00;3.60;;;19.80;1.00;;;;;;5094697;28;20404;-69
2023/06/23 00:27:37;;;;;;;3.47;3.07;;;19.90;1.00;;;;;;5094226;28;20853;-70
2023/06/23 00:30:04;;;;;;;3.50;2.70;;;20.00;1.00;;;;;;5093919;28;20477;-74
2023/06/23 00:32:30;;;;;;;3.47;3.27;;;20.10;1.00;;;;;;5094435;28;20406;-70
2023/06/23 00:34:59;;;;;;;3.97;2.87;;;20.10;1.00;;;;;;5076598;28;20503;-70
2023/06/23 00:37:26;;;;;;;4.07;3.70;;;20.10;1.00;;;;;;5093716;28;20165;-70
2023/06/23 00:39:52;;;;;;;3.60;3.30;;;20.20;1.00;;;;;;5093475;28;20419;-70
2023/06/23 00:42:18;;;;;;;3.40;3.10;;;20.20;1.00;;;;;;5092809;28;20939;-69
2023/06/23 00:44:44;;;;;;;3.97;3.57;;;20.20;1.00;;;;;;5077817;28;20431;-69
2023/06/23 00:47:10;;;;;;;3.73;3.40;;;20.20;1.00;;;;;;5073980;28;20197;-70
2023/06/23 00:49:35;;;;;;;3.43;3.23;;;20.20;1.00;;;;;;5076404;28;20227;-69
2023/06/23 00:52:07;;;;;;;3.90;3.50;;;20.20;1.00;;;;;;5093308;28;20396;-69
2023/06/23 00:54:34;;;;;;;4.53;3.47;;;20.20;1.00;;;;;;5093810;28;20638;-70
2023/06/23 00:57:00;;;;;;;4.03;3.63;;;20.10;1.00;;;;;;5093409;28;20407;-70
2023/06/23 00:59:32;;;;;;;5.90;3.60;;;20.00;1.00;;;;;;5076103;28;20480;-70
2023/06/23 01:01:59;;;;;;;3.90;3.60;;;19.80;1.00;;;;;;5093150;28;20407;-70
2023/06/23 01:04:51;;;;;;;3.77;3.47;;;19.80;1.00;;;;;;5093468;28;20454;-69
2023/06/23 01:10:51;;;;;;;4.27;3.87;;;19.80;1.00;;;;;;5092913;28;20515;-70
2023/06/23 01:13:54;;;;;;;6.10;3.70;;;19.80;1.00;;;;;;5093244;28;20995;-70
2023/06/23 01:16:33;;;;;;;4.67;3.67;;;19.80;1.00;;;;;;5093193;28;20418;-70
2023/06/23 01:19:14;;;;;;;4.27;3.87;;;19.70;1.00;;;;;;5093099;28;20453;-72
2023/06/23 01:21:57;;;;;;;4.57;4.17;;;19.70;1.00;;;;;;5093025;28;20422;-69
2023/06/23 01:24:39;;;;;;;3.90;3.60;;;19.60;1.00;;;;;;5093804;28;20438;-70
2023/06/23 01:27:08;;;;;;;4.03;3.73;;;19.40;1.00;;;;;;5093869;28;20443;-69
2023/06/23 01:29:36;;;;;;;4.27;3.87;;;19.40;1.00;;;;;;5093466;28;20799;-70
2023/06/23 01:32:14;;;;;;;4.97;4.20;;;19.40;1.00;;;;;;5091167;28;20431;-70
2023/06/23 01:34:45;;;;;;;3.70;3.40;;;19.40;1.00;;;;;;5093460;28;20549;-70
2023/06/23 01:38:09;;;;;;;4.77;4.37;;;19.50;1.00;;;;;;5093080;28;20388;-70
2023/06/23 01:44:13;;;;;;;4.00;3.60;;;19.60;1.00;;;;;;4952449;28;20528;-70
2023/06/23 01:46:49;;;;;;;4.10;3.80;;;19.50;1.00;;;;;;5008269;28;20459;-70
2023/06/23 01:49:23;;;;;;;5.63;4.07;;;19.40;1.00;;;;;;5079729;28;20414;-70
2023/06/23 01:52:23;;;;;;;7.50;4.10;;;19.50;1.00;;;;;;5091208;28;20387;-71
2023/06/23 01:54:49;;;;;;;4.80;4.40;;;19.60;1.00;;;;;;5075198;28;20843;-70
2023/06/23 01:57:41;;;;;;;6.80;4.70;;;19.60;1.00;;;;;;5092618;28;20427;-69
2023/06/23 02:00:13;;;;;;;5.20;4.50;;;19.60;1.00;;;;;;5092423;28;20423;-72
2023/06/23 02:02:44;;;;;;;4.70;4.20;;;19.70;1.00;;;;;;5091841;28;20431;-70
2023/06/23 02:05:16;;;;;;;4.90;4.40;;;19.70;1.00;;;;;;5075434;28;20908;-69
2023/06/23 02:07:45;;;;;;;4.73;3.93;;;19.70;1.00;;;;;;5093127;28;20466;-71
2023/06/23 02:10:11;;;;;;;4.20;3.80;;;19.80;1.00;;;;;;5091898;28;20408;-69
2023/06/23 02:12:41;;;;;;;4.83;4.07;;;19.80;1.00;;;;;;5091423;28;20427;-70
2023/06/23 02:15:09;;;;;;;4.73;4.40;;;19.80;1.00;;;;;;5093517;28;20434;-69
2023/06/23 02:17:36;;;;;;;5.30;4.80;;;19.80;1.00;;;;;;5093215;28;20403;-69
2023/06/23 02:20:14;;;;;;;6.77;5.17;;;19.80;1.00;;;;;;5093042;28;20826;-70
2023/06/23 02:22:47;;;;;;;5.27;4.87;;;19.80;1.00;;;;;;5093129;28;20407;-71
2023/06/23 02:25:14;;;;;;;9.30;4.90;;;19.80;1.00;;;;;;5093237;28;20469;-70
2023/06/23 02:27:41;;;;;;;5.80;5.30;;;19.80;1.00;;;;;;5091903;28;20459;-69
2023/06/23 02:30:08;;;;;;;4.93;4.57;;;19.80;1.00;;;;;;5089101;28;21152;-70
2023/06/23 02:32:34;;;;;;;5.00;4.27;;;19.70;1.00;;;;;;5092501;28;20495;-70
2023/06/23 02:35:18;;;;;;;6.40;4.63;;;19.60;1.00;;;;;;5075030;28;20502;-70
2023/06/23 02:38:05;;;;;;;5.23;4.83;;;19.70;1.00;;;;;;5093041;28;20174;-71
2023/06/23 02:40:34;;;;;;;6.47;4.90;;;19.70;1.00;;;;;;5082647;28;20436;-69
2023/06/23 02:43:06;;;;;;;6.17;5.00;;;19.70;1.00;;;;;;5092972;28;20419;-70
2023/06/23 02:45:39;;;;;;;6.60;5.60;;;19.60;1.00;;;;;;5092729;28;20407;-71
2023/06/23 02:48:11;;;;;;;5.93;5.13;;;19.50;1.00;;;;;;5091867;28;20462;-70
2023/06/23 02:50:38;;;;;;;6.03;5.43;;;19.60;1.00;;;;;;5096174;28;20400;-69
2023/06/23 02:53:08;;;;;;;7.40;5.70;;;19.60;1.00;;;;;;5096020;28;20459;-70
2023/06/23 02:55:44;;;;;;;5.80;5.30;;;19.60;1.00;;;;;;5095797;28;20557;-70
2023/06/23 02:58:14;;;;;;;5.90;5.07;;;19.70;1.00;;;;;;5096517;28;20407;-71
2023/06/23 03:00:41;;;;;;;6.00;5.60;;;19.70;1.00;;;;;;5095935;28;20447;-70
2023/06/23 03:03:14;;;;;;;6.03;5.50;;;19.60;1.00;;;;;;5078302;28;20442;-70
2023/06/23 03:05:40;;;;;;;5.83;5.13;;;19.60;1.00;;;;;;5095771;28;20407;-69
2023/06/23 03:08:07;;;;;;;6.90;5.03;;;19.60;1.00;;;;;;5094956;28;20512;-69
2023/06/23 03:10:33;;;;;;;5.97;5.47;;;19.50;1.00;;;;;;5095555;28;20227;-70
2023/06/23 03:13:00;;;;;;;8.10;5.50;;;19.50;1.00;;;;;;5096264;28;20423;-70
2023/06/23 03:15:27;;;;;;;6.37;5.77;;;19.60;1.00;;;;;;5096273;28;20404;-69
2023/06/23 03:18:28;;;;;;;4.33;3.93;;;19.60;1.00;;;;;;5078253;28;20411;-70
2023/06/23 03:21:14;;;;;;;7.10;5.83;;;19.70;1.00;;;;;;5078560;28;20455;-70
2023/06/23 03:23:41;;;;;;;5.97;5.37;;;19.60;1.00;;;;;;5095042;28;20447;-70
2023/06/23 03:26:10;;;;;;;6.07;5.57;;;19.50;1.00;;;;;;5095941;28;20558;-71
2023/06/23 03:28:41;;;;;;;7.87;5.50;;;19.40;1.00;;;;;;5095588;28;20400;-70
2023/06/23 03:31:08;;;;;;;6.40;5.90;;;19.40;1.00;;;;;;5092764;28;20435;-69
2023/06/23 03:33:40;;;;;;;6.60;5.80;;;19.40;1.00;;;;;;5091274;28;20454;-69
2023/06/23 03:36:11;;;;;;;7.63;6.10;;;19.40;7.40;;;;;;5078181;28;20400;-70
2023/06/23 03:38:44;;;;;;;6.17;5.10;;;19.50;18.20;;;;;;5095626;28;20452;-70
2023/06/23 03:41:11;;;;;;;6.10;5.60;;;19.60;21.20;;;;;;5094398;28;20451;-69
2023/06/23 03:43:53;;;;;;;8.23;4.97;;;19.60;19.60;;;;;;5095542;28;20438;-71
2023/06/23 03:46:24;;;;;;;6.73;5.07;;;19.60;25.70;;;;;;5091826;28;20479;-70
2023/06/23 03:48:54;;;;;;;5.73;4.90;;;19.70;30.30;;;;;;5095188;28;20399;-70
2023/06/23 03:51:22;;;;;;;6.33;5.73;;;19.70;33.20;;;;;;5076658;28;20412;-71
2023/06/23 03:53:52;;;;;;;5.33;4.83;;;19.70;35.00;;;;;;5095013;28;20431;-70
2023/06/23 03:56:19;;;;;;;6.90;5.43;;;19.70;29.00;;;;;;5095573;28;20788;-69
2023/06/23 03:58:49;;;;;;;5.90;4.90;;;19.70;34.60;;;;;;5094736;28;20435;-70
2023/06/23 04:01:16;;;;;;;8.07;5.50;;;19.70;35.70;;;;;;5093156;28;20439;-70
2023/06/23 04:03:43;;;;;;;6.77;5.93;;;19.70;37.30;;;;;;5094664;28;20432;-70
2023/06/23 04:06:11;;;;;;;5.50;5.00;;;19.70;29.10;;;;;;5076366;28;20956;-69
2023/06/23 04:08:46;;;;;;;6.20;5.60;;;19.60;25.60;;;;;;5095181;28;20411;-69
2023/06/23 04:11:14;;;;;;;7.83;5.00;;;19.60;19.10;;;;;;5094121;28;20506;-71
2023/06/23 04:13:42;;;;;;;6.53;6.03;;;19.50;5.10;;;;;;5094427;28;20455;-71
2023/06/23 04:16:09;;;;;;;6.40;5.37;;;19.40;1.00;;;;;;5076534;28;20495;-69
2023/06/23 04:18:42;;;;;;;5.67;5.10;;;19.20;1.00;;;;;;5077092;28;20866;-69
2023/06/23 04:21:13;;;;;;;7.50;5.00;;;19.20;1.00;;;;;;5093614;28;20411;-69
2023/06/23 04:23:40;;;;;;;8.10;5.73;;;19.20;1.00;;;;;;5094230;28;20451;-69
2023/06/23 04:26:11;;;;;;;8.50;6.03;;;19.10;1.00;;;;;;5094923;28;20402;-69
2023/06/23 04:28:41;;;;;;;5.97;5.37;;;19.00;1.00;;;;;;5071233;28;20510;-69
2023/06/23 04:31:09;;;;;;;6.73;6.23;;;19.00;1.00;;;;;;5073747;28;20439;-70
2023/06/23 04:33:36;;;;;;;6.07;5.47;;;19.00;1.00;;;;;;5076190;28;20429;-70
2023/06/23 04:36:15;;;;;;;7.43;5.80;;;18.90;1.00;;;;;;5090250;28;20405;-70
2023/06/23 04:38:47;;;;;;;7.73;5.83;;;18.90;1.00;;;;;;5074674;28;20405;-71
2023/06/23 04:41:19;;;;;;;6.30;5.40;;;18.90;1.00;;;;;;5072910;28;20405;-72
2023/06/23 04:43:49;;;;;;;6.47;5.20;;;18.90;1.00;;;;;;5094194;28;20415;-70
2023/06/23 04:46:41;;;;;;;6.63;5.97;;;19.00;1.00;;;;;;5094553;28;20454;-69
2023/06/23 04:49:12;;;;;;;5.73;5.23;;;19.00;1.00;;;;;;5093961;28;20738;-71
2023/06/23 04:51:51;;;;;;;4.80;4.50;;;19.00;1.00;;;;;;5093157;28;20421;-70
2023/06/23 04:54:38;;;;;;;5.80;5.30;;;19.00;1.00;;;;;;5094495;28;20419;-70
2023/06/23 04:57:07;;;;;;;5.97;5.40;;;19.00;1.00;;;;;;5093940;28;20411;-71
2023/06/23 04:59:35;;;;;;;6.17;5.57;;;19.00;1.00;;;;;;5076173;28;20472;-69
2023/06/23 05:02:02;;;;;;;5.93;4.63;;;19.00;1.00;;;;;;5092741;28;20415;-69
2023/06/23 05:04:38;;;;;;;8.53;5.83;;;19.10;1.00;;;;;;5093476;28;20447;-69
2023/06/23 05:07:13;;;;;;;5.90;5.30;;;19.10;1.00;;;;;;5093917;28;20447;-70
2023/06/23 05:09:42;;;;;;;5.67;4.83;;;19.00;1.00;;;;;;5092532;28;20427;-69
2023/06/23 05:12:10;;;;;;;5.67;5.17;;;19.00;1.00;;;;;;5092341;28;20757;-69
2023/06/23 05:14:39;;;;;;;9.00;5.03;;;19.00;1.00;;;;;;5094213;28;20415;-70
2023/06/23 05:17:08;;;;;;;6.63;4.97;;;19.00;1.00;;;;;;5093925;28;20415;-70
2023/06/23 05:19:36;;;;;;;8.53;4.60;;;19.00;1.00;;;;;;5093772;28;20412;-70
2023/06/23 05:22:08;;;;;;;5.77;4.80;;;19.00;1.00;;;;;;5073671;28;20769;-70
2023/06/23 05:24:37;;;;;;;7.83;4.67;;;19.10;1.00;;;;;;5094024;28;20428;-70
2023/06/23 05:27:08;;;;;;;7.27;5.17;;;19.10;1.00;;;;;;5093030;28;20958;-71
2023/06/23 05:29:38;;;;;;;6.10;5.50;;;19.00;1.00;;;;;;5093830;28;20410;-70
2023/06/23 05:32:08;;;;;;;6.07;5.50;;;19.00;1.00;;;;;;5075043;28;20427;-69
2023/06/23 05:34:36;;;;;;;7.93;5.00;;;19.00;1.00;;;;;;5093732;28;20423;-70
2023/06/23 05:37:05;;;;;;;6.00;5.50;;;19.00;1.00;;;;;;5078203;28;20920;-69
2023/06/23 05:39:37;;;;;;;5.63;5.13;;;19.00;1.00;;;;;;5072681;28;20419;-70
2023/06/23 05:42:04;;;;;;;7.03;6.37;;;19.00;1.00;;;;;;5072598;28;20428;-66
2023/06/23 05:44:47;;;;;;;8.60;5.50;;;19.00;1.00;;;;;;5073250;28;20428;-66
2023/06/23 05:47:26;;;;;;;5.83;5.33;;;19.00;1.00;;;;;;5072454;28;20456;-69
2023/06/23 05:49:58;;;;;;;6.27;5.67;;;19.00;1.00;;;;;;5082983;28;20426;-67
2023/06/23 05:52:48;;;;;;;5.87;5.23;;;19.00;1.00;;;;;;5090446;28;20443;-68
2023/06/23 05:55:26;;;;;;;6.37;4.53;;;19.00;1.00;;;;;;5062538;28;20421;-66
2023/06/23 05:57:59;;;;;;;8.50;5.70;;;19.10;1.00;;;;;;5073118;28;20412;-67
2023/06/23 06:00:30;;;;;;;6.37;4.97;;;19.10;1.00;;;;;;5072458;28;20431;-66
2023/06/23 06:02:59;;;;;;;7.80;5.90;;;19.00;1.00;;;;;;5072702;28;20405;-69
2023/06/23 06:05:27;;;;;;;5.90;5.40;;;19.00;1.00;;;;;;5072726;28;20828;-68
2023/06/23 06:07:57;;;;;;;9.97;5.07;;;19.00;1.00;;;;;;5072942;28;20484;-67
2023/06/23 06:10:26;;;;;;;5.40;5.00;;;19.00;1.00;;;;;;5050886;28;21140;-66
2023/06/23 06:12:54;;;;;;;5.60;5.00;;;19.10;1.00;;;;;;5075673;28;20436;-67
2023/06/23 06:18:23;;;;;;;9.00;5.20;;;19.20;1.00;;;;;;5093720;28;20764;-66
2023/06/23 06:20:50;;;;;;;6.93;5.30;;;19.10;1.00;;;;;;5091684;28;20431;-67
2023/06/23 06:23:18;;;;;;;6.87;5.50;;;19.10;1.00;;;;;;5093412;28;20489;-66
2023/06/23 06:25:47;;;;;;;6.17;4.83;;;19.20;1.00;;;;;;5076349;28;20964;-67
2023/06/23 06:28:14;;;;;;;7.43;6.03;;;19.20;1.00;;;;;;5077140;28;20873;-67
2023/06/23 06:30:41;;;;;;;5.80;5.20;;;19.20;1.00;;;;;;5076192;28;20397;-66
2023/06/23 06:33:09;;;;;;;7.17;4.97;;;19.20;1.00;;;;;;5076702;28;20522;-66
2023/06/23 06:35:39;;;;;;;6.60;5.17;;;19.20;1.00;;;;;;5076088;28;20738;-66
2023/06/23 06:38:06;;;;;;;6.10;5.30;;;19.20;1.00;;;;;;5079021;28;20409;-70
2023/06/23 06:40:34;;;;;;;5.60;4.90;;;19.30;1.00;;;;;;5084763;28;20439;-70
2023/06/23 06:43:00;;;;;;;5.07;4.67;;;19.30;1.00;;;;;;5077485;28;20459;-70
2023/06/23 06:45:26;;;;;;;6.30;4.67;;;19.30;1.00;;;;;;5096898;28;20425;-70
2023/06/23 06:47:54;;;;;;;5.13;4.73;;;19.30;1.00;;;;;;5096797;28;20442;-70
2023/06/23 06:50:21;;;;;;;11.50;5.30;;;19.40;1.00;;;;;;5096014;28;20399;-69
2023/06/23 06:52:48;;;;;;;6.00;4.97;;;19.40;1.00;;;;;;5095981;28;20915;-69
2023/06/23 06:55:21;;;;;;;8.07;5.83;;;19.50;1.00;;;;;;5095390;28;20459;-70
2023/06/23 06:57:48;;;;;;;5.87;4.87;;;19.50;1.00;;;;;;5078523;28;20430;-70
2023/06/23 07:00:17;;;;;;;5.63;4.83;;;19.50;1.00;;;;;;5095325;28;20456;-70
2023/06/23 07:02:44;;;;;;;6.60;5.00;;;19.60;1.00;;;;;;5096454;28;20404;-70
2023/06/23 07:05:11;;;;;;;7.03;5.47;;;19.70;1.00;;;;;;5096475;28;20563;-69
2023/06/23 07:07:37;;;;;;;5.77;5.27;;;19.70;1.00;;;;;;5077475;28;20451;-69
2023/06/23 07:10:04;;;;;;;6.03;5.53;;;19.80;1.00;;;;;;5095846;28;20889;-74
2023/06/23 07:12:31;;;;;;;6.43;5.13;;;19.80;1.00;;;;;;5086881;28;20522;-70
2023/06/23 07:14:57;;;;;;;6.40;5.10;;;19.90;1.00;;;;;;5095515;28;20415;-69
2023/06/23 07:17:23;;;;;;;4.87;4.47;;;20.00;1.00;;;;;;5095657;28;20460;-70
2023/06/23 07:19:48;;;;;;;9.77;5.30;;;20.00;1.00;;;;;;5096002;28;20277;-70
2023/06/23 07:22:14;;;;;;;6.53;5.00;;;19.90;1.00;;;;;;5095647;28;20940;-70
2023/06/23 07:24:41;;;;;;;5.40;4.40;;;19.90;1.00;;;;;;5095654;28;20197;-74
2023/06/23 07:27:08;;;;;;;4.80;4.40;;;19.90;1.00;;;;;;5080169;28;20462;-70
2023/06/23 07:29:34;;;;;;;6.13;5.50;;;20.00;1.00;;;;;;5096200;28;20407;-70
2023/06/23 07:32:01;;;;;;;5.17;4.67;;;20.00;1.00;;;;;;5094348;28;20407;-70
2023/06/23 07:34:28;;;;;;;8.43;5.20;;;20.10;1.00;;;;;;5095666;28;20423;-71
2023/06/23 07:36:54;;;;;;;5.53;5.03;;;20.20;1.00;;;;;;5076647;28;20416;-70
2023/06/23 07:39:20;;;;;;;4.90;4.50;;;20.20;1.00;;;;;;5095211;28;20454;-70
2023/06/23 07:41:46;;;;;;;6.93;5.27;;;20.30;1.00;;;;;;5076799;28;20415;-70
2023/06/23 07:44:12;;;;;;;4.50;4.10;;;20.30;1.00;;;;;;5095840;28;20195;-70
2023/06/23 07:46:37;;;;;;;6.20;4.80;;;20.40;1.00;;;;;;5077578;28;20209;-70
2023/06/23 07:49:09;;;;;;;5.33;4.83;;;20.40;1.00;;;;;;5077497;28;20215;-70
2023/06/23 07:51:38;;;;;;;6.20;5.13;;;20.40;1.00;;;;;;5093786;28;20534;-72
2023/06/23 07:54:03;;;;;;;5.80;4.67;;;20.40;1.00;;;;;;5094211;28;20443;-70
2023/06/23 07:56:29;;;;;;;5.40;4.73;;;20.40;1.00;;;;;;5095017;28;20761;-72
2023/06/23 07:58:55;;;;;;;5.77;4.50;;;20.40;1.00;;;;;;5094919;28;20212;-69
2023/06/23 08:01:24;;;;;;;5.50;5.00;;;20.40;1.00;;;;;;5094492;28;20634;-70
2023/06/23 08:03:49;;;;;;;4.30;3.93;;;20.40;1.00;;;;;;5077257;28;20219;-70
2023/06/23 08:06:22;;;;;;;5.40;5.00;;;20.40;1.00;;;;;;5063807;28;20451;-70
2023/06/23 08:08:48;;;;;;;5.40;4.90;;;20.30;1.00;;;;;;5091644;28;20177;-69
2023/06/23 08:11:45;;;;;;;7.03;4.97;;;20.30;1.00;;;;;;5093573;28;20443;-70
2023/06/23 08:14:11;;;;;;;5.60;5.10;;;20.40;1.00;;;;;;5094269;28;20806;-69
2023/06/23 08:16:38;;;;;;;5.40;4.87;;;20.50;1.00;;;;;;5085556;28;20435;-70
2023/06/23 08:19:07;;;;;;;5.20;4.70;;;20.50;1.00;;;;;;5093824;28;20413;-70
2023/06/23 08:21:48;;;;;;;6.00;4.30;;;20.60;1.00;;;;;;5091945;28;20427;-69
2023/06/23 08:25:10;;;;;;;;;;;;;;;;;;;;;
2023/06/23 08:27:58;;;;;;;5.20;4.70;;;20.50;1.00;;;;;;5089374;28;20462;-70
2023/06/23 08:30:29;;;;;;;4.40;4.00;;;20.60;1.00;;;;;;5080734;28;20416;-69
2023/06/23 08:32:55;;;;;;;5.20;4.77;;;20.60;1.00;;;;;;5082890;28;20413;-71
2023/06/23 08:36:14;;;;;;;5.93;4.93;;;20.70;1.00;;;;;;5074891;28;20568;-71
2023/06/23 08:38:40;;;;;;;7.17;5.53;;;20.60;1.00;;;;;;5077751;28;20435;-71
2023/06/23 08:41:37;;;;;;;5.30;4.90;;;20.50;1.00;;;;;;5077234;28;20418;-71
2023/06/23 08:44:42;;;;;;;4.70;4.30;;;20.50;1.00;;;;;;5084175;28;20448;-69
2023/06/23 08:47:04;;;;;;;4.77;4.37;;;20.50;1.00;;;;;;5083955;28;20542;-70
2023/06/23 08:49:32;;;;;;;5.40;4.90;;;20.50;1.00;;;;;;5088263;28;20443;-70
2023/06/23 08:51:59;;;;;;;5.23;4.80;;;20.70;1.00;;;;;;5086148;28;20411;-69
2023/06/23 08:54:25;;;;;;;4.63;4.33;;;20.70;1.00;;;;;;5082232;28;20459;-69
2023/06/23 08:56:51;;;;;;;4.70;4.30;;;20.90;1.00;;;;;;5080598;28;20525;-70
2023/06/23 08:59:25;;;;;;;5.33;4.83;;;21.10;1.00;;;;;;5061632;28;20483;-70
2023/06/23 09:01:51;;;;;;;5.13;4.63;;;21.40;1.00;;;;;;5077655;28;20187;-69
2023/06/23 09:04:18;;;;;;;7.07;4.70;;;21.50;1.00;;;;;;5083816;28;20436;-69
2023/06/23 09:06:44;;;;;;;5.10;4.60;;;21.60;1.00;;;;;;5085418;28;20225;-70
2023/06/23 09:09:10;;;;;;;4.73;4.17;;;21.80;1.00;;;;;;5073551;28;20437;-70
2023/06/23 09:11:36;;;;;;;5.03;4.57;;;22.00;1.00;;;;;;5073262;28;20194;-70
2023/06/23 09:14:06;;;;;;;4.73;4.23;;;22.10;1.00;;;;;;5075571;28;20203;-69
2023/06/23 09:16:32;;;;;;;5.00;4.60;;;22.20;1.00;;;;;;5069021;28;20436;-69
2023/06/23 09:19:00;;;;;;;6.00;4.30;;;22.30;1.00;;;;;;5069947;28;20965;-70
2023/06/23 09:21:26;;;;;;;3.70;3.40;;;22.40;1.00;;;;;;5091981;28;20177;-70
2023/06/23 09:24:03;;;;;;;4.37;4.07;;;22.40;1.00;;;;;;5077473;28;20493;-70
2023/06/23 09:26:42;;;;;;;5.63;4.07;;;22.50;1.00;;;;;;5089079;28;20549;-71
2023/06/23 09:29:22;;;;;;;5.33;4.40;;;22.50;1.00;;;;;;5082463;28;20463;-73
2023/06/23 09:31:50;;;;;;;6.00;4.30;;;22.20;1.00;;;;;;5084184;28;20799;-70
2023/06/23 09:34:24;;;;;;;5.70;4.63;;;22.00;1.00;;;;;;5075104;28;20974;-71
2023/06/23 09:36:52;;;;;;;6.63;4.63;;;22.10;1.00;;;;;;5075086;28;20444;-68
2023/06/23 09:39:18;;;;;;;4.73;4.17;;;22.20;1.00;;;;;;5072748;28;20896;-70
2023/06/23 09:41:57;;;;;;;4.80;4.40;;;22.30;1.00;;;;;;5072569;28;20441;-67
2023/06/23 09:44:32;;;;;;;5.63;3.70;;;22.10;99.90;;;;;;5075203;28;20446;-67
2023/06/23 09:47:05;;;;;;;4.80;4.40;;;22.20;99.90;;;;;;5089430;28;20454;-68
2023/06/23 09:49:44;;;;;;;4.40;4.10;;;22.40;99.90;;;;;;5093049;28;20428;-66
2023/06/23 09:52:16;;;;;;;4.57;4.17;;;22.60;99.90;;;;;;5092794;28;20403;-67
2023/06/23 09:54:42;;;;;;;5.57;5.03;;;22.70;99.90;;;;;;5089718;28;20976;-67
2023/06/23 09:57:12;;;;;;;5.03;4.70;;;22.70;99.90;;;;;;5080086;28;20427;-67
2023/06/23 09:59:39;;;;;;;4.30;3.90;;;22.60;99.90;;;;;;5083297;28;20428;-67
2023/06/23 10:02:07;;;;;;;4.27;3.83;;;22.50;99.90;;;;;;5090629;28;20895;-67
2023/06/23 10:04:32;;;;;;;4.97;4.57;;;22.40;99.90;;;;;;5081910;28;20458;-67
2023/06/23 10:07:16;;;;;;;5.43;4.40;;;22.40;99.90;;;;;;5075814;28;20452;-67
2023/06/23 10:09:49;;;;;;;4.47;4.17;;;22.50;99.90;;;;;;5086174;28;20204;-66
2023/06/23 10:12:16;;;;;;;5.60;4.53;;;22.50;99.90;;;;;;5092398;28;20431;-69
2023/06/23 10:14:42;;;;;;;6.37;4.20;;;22.60;99.90;;;;;;5093109;28;20419;-71
2023/06/23 10:17:09;;;;;;;4.37;3.97;;;22.60;99.90;;;;;;5083122;28;20431;-69
2023/06/23 10:19:34;;;;;;;7.10;4.60;;;22.60;99.90;;;;;;5083319;28;20927;-69
2023/06/23 10:22:01;;;;;;;4.43;4.10;;;22.70;99.90;;;;;;5092206;28;20408;-71
2023/06/23 10:24:30;;;;;;;4.27;3.97;;;22.90;99.90;;;;;;5067228;28;20308;-71
2023/06/23 10:26:58;;;;;;;5.30;4.80;;;23.00;99.90;;;;;;5090264;28;20453;-69
2023/06/23 10:29:24;;;;;;;4.63;4.23;;;23.10;99.90;;;;;;5093421;28;20398;-70
2023/06/23 10:31:56;;;;;;;4.83;4.23;;;23.00;99.90;;;;;;5085834;28;20920;-70
2023/06/23 10:34:24;;;;;;;4.80;4.30;;;23.10;99.90;;;;;;5074964;28;20454;-70
2023/06/23 10:36:56;;;;;;;7.13;4.40;;;23.30;99.90;;;;;;5074449;28;20422;-70
2023/06/23 10:39:26;;;;;;;4.57;4.17;;;23.60;99.90;;;;;;5085267;28;20438;-69
2023/06/23 10:41:53;;;;;;;4.70;4.20;;;23.80;99.90;;;;;;5079213;28;20420;-70
2023/06/23 10:44:19;;;;;;;5.07;3.93;;;23.70;99.90;;;;;;5074151;28;20424;-69
2023/06/23 10:46:46;;;;;;;4.27;3.87;;;23.60;99.90;;;;;;5088042;28;20498;-69
2023/06/23 10:49:13;;;;;;;8.40;4.90;;;23.60;99.90;;;;;;5072675;28;20397;-70
2023/06/23 10:51:40;;;;;;;4.40;4.10;;;23.60;99.90;;;;;;5071705;28;20862;-71
2023/06/23 10:54:07;;;;;;;4.17;3.87;;;23.70;99.90;;;;;;5072196;28;20412;-69
2023/06/23 10:56:44;;;;;;;4.10;3.80;;;23.80;99.90;;;;;;5076734;28;20438;-70
2023/06/23 10:59:28;;;;;;;6.03;4.00;;;23.80;99.90;;;;;;5092031;28;20435;-71
2023/06/23 11:01:59;;;;;;;5.50;4.93;;;23.70;99.90;;;;;;5086570;28;20515;-69
2023/06/23 11:04:30;;;;;;;4.53;4.17;;;23.70;99.90;;;;;;5076724;28;20452;-69
2023/06/23 11:07:10;;;;;;;4.40;4.00;;;23.70;99.90;;;;;;5072592;28;20451;-70
2023/06/23 11:09:54;;;;;;;4.83;4.43;;;23.50;99.90;;;;;;5070312;28;20534;-73
2023/06/23 11:12:42;;;;;;;4.70;4.40;;;23.30;99.90;;;;;;5091710;28;20427;-69
2023/06/23 11:15:20;;;;;;;4.00;3.60;;;23.40;99.90;;;;;;5096154;28;20487;-70
2023/06/23 11:17:47;;;;;;;4.63;4.33;;;23.50;99.90;;;;;;5093144;28;20438;-73
2023/06/23 11:20:24;;;;;;;3.87;3.53;;;23.70;99.90;;;;;;5091313;28;20521;-69
2023/06/23 11:23:11;;;;;;;4.20;3.90;;;23.70;99.90;;;;;;5096194;28;20899;-69
2023/06/23 11:25:44;;;;;;;8.40;4.43;;;23.70;99.90;;;;;;5069860;28;20434;-69
2023/06/23 11:28:38;;;;;;;3.43;3.23;;;23.60;99.90;;;;;;5093454;28;20463;-70
2023/06/23 11:31:14;;;;;;;3.97;3.60;;;23.80;99.90;;;;;;5094533;28;20438;-69
2023/06/23 11:33:40;;;;;;;4.10;3.80;;;23.90;99.90;;;;;;5080610;28;20538;-71
2023/06/23 11:36:12;;;;;;;5.10;4.57;;;24.20;99.90;;;;;;5057809;28;20455;-69
2023/06/23 11:38:40;;;;;;;3.73;3.43;;;24.50;99.90;;;;;;5075538;28;20473;-70
2023/06/23 11:41:06;;;;;;;3.80;3.50;;;24.70;99.90;;;;;;5093498;28;20438;-69
2023/06/23 11:43:39;;;;;;;4.47;4.07;;;24.90;99.90;;;;;;5089116;28;20451;-71
2023/06/23 11:46:12;;;;;;;3.70;3.40;;;25.30;99.90;;;;;;5094129;28;20484;-72
2023/06/23 11:48:42;;;;;;;5.50;3.80;;;25.90;99.90;;;;;;5094906;28;20424;-71
2023/06/23 11:51:12;;;;;;;4.10;3.80;;;26.50;99.90;;;;;;5086532;28;20467;-72
2023/06/23 11:53:41;;;;;;;4.37;3.93;;;27.10;99.90;;;;;;5076408;28;20530;-72
2023/06/23 11:56:08;;;;;;;4.53;3.87;;;27.20;99.90;;;;;;5094718;28;20415;-73
2023/06/23 11:58:35;;;;;;;3.90;3.60;;;26.80;99.90;;;;;;5077353;28;20423;-71
2023/06/23 12:01:01;;;;;;;4.70;4.00;;;27.00;99.90;;;;;;5086137;28;20465;-71
2023/06/23 12:03:31;;;;;;;7.83;4.07;;;27.40;99.90;;;;;;5095288;28;20427;-72
2023/06/23 12:05:59;;;;;;;5.90;3.90;;;27.80;99.90;;;;;;5094651;28;20404;-70
2023/06/23 12:08:28;;;;;;;6.30;3.77;;;28.00;99.90;;;;;;5092953;28;20813;-76
2023/06/23 12:10:55;;;;;;;3.73;3.43;;;28.40;99.90;;;;;;5066689;28;20656;-71
2023/06/23 12:13:21;;;;;;;4.67;3.97;;;28.70;99.90;;;;;;5088822;28;20451;-71
2023/06/23 12:15:47;;;;;;;4.30;3.90;;;28.60;99.90;;;;;;5094350;28;20428;-70
2023/06/23 12:18:14;;;;;;;6.23;3.87;;;28.60;99.90;;;;;;5087095;28;20463;-71
2023/06/23 12:20:47;;;;;;;4.37;4.00;;;28.60;99.90;;;;;;5093930;28;20403;-71
2023/06/23 12:23:14;;;;;;;3.13;2.93;;;28.50;99.90;;;;;;5095065;28;20438;-70
2023/06/23 12:25:42;;;;;;;3.73;3.43;;;28.20;99.90;;;;;;5093582;28;20445;-71
2023/06/23 12:28:15;;;;;;;3.67;3.37;;;28.20;99.90;;;;;;5088597;28;20836;-71
2023/06/23 12:30:43;;;;;;;4.60;3.27;;;28.20;99.90;;;;;;5075198;28;20407;-71
2023/06/23 12:33:18;;;;;;;3.00;2.80;;;28.40;99.90;;;;;;5076431;28;20452;-71
2023/06/23 12:36:04;;;;;;;3.23;3.03;;;28.30;99.90;;;;;;5094766;28;20410;-71
2023/06/23 12:38:34;;;;;;;3.20;2.90;;;28.30;99.90;;;;;;5088742;28;20431;-74
2023/06/23 12:41:16;;;;;;;3.03;2.60;;;28.20;99.90;;;;;;5071239;28;20427;-69
2023/06/23 12:43:42;;;;;;;3.37;3.00;;;28.20;99.90;;;;;;5078799;28;20452;-71
2023/06/23 12:46:12;;;;;;;3.67;3.37;;;28.20;99.90;;;;;;5074364;28;20400;-69
2023/06/23 12:48:39;;;;;;;3.20;2.93;;;28.00;99.90;;;;;;5085599;28;20436;-70
2023/06/23 12:51:05;;;;;;;2.70;2.50;;;27.90;99.90;;;;;;5068872;28;20424;-69
2023/06/23 12:53:31;;;;;;;3.87;3.57;;;27.70;99.90;;;;;;5084789;28;20532;-70
2023/06/23 12:55:57;;;;;;;4.03;2.93;;;27.30;99.90;;;;;;5074132;28;20401;-72
2023/06/23 12:58:24;;;;;;;3.93;3.63;;;27.10;99.90;;;;;;5082233;28;20993;-69
2023/06/23 13:00:49;;;;;;;3.97;3.67;;;26.90;99.90;;;;;;5074571;28;20178;-71
2023/06/23 13:03:15;;;;;;;4.00;3.40;;;26.90;99.90;;;;;;5083898;28;20869;-71
2023/06/23 13:05:42;;;;;;;3.53;3.10;;;26.70;99.90;;;;;;5089506;28;20178;-72
2023/06/23 13:08:13;;;;;;;4.03;3.60;;;26.60;99.90;;;;;;5099740;28;20667;-69
2023/06/23 13:10:40;;;;;;;3.23;3.03;;;26.40;99.90;;;;;;5093180;28;20938;-71
2023/06/23 13:13:06;;;;;;;4.07;3.20;;;26.20;99.90;;;;;;5093837;28;20455;-71
2023/06/23 13:15:35;;;;;;;5.23;3.00;;;26.20;99.90;;;;;;5092223;28;20439;-71
2023/06/23 13:18:03;;;;;;;3.30;3.00;;;26.00;99.90;;;;;;5059719;28;20417;-71
2023/06/23 13:20:29;;;;;;;3.20;3.00;;;25.80;99.90;;;;;;5076669;28;20439;-71
2023/06/23 13:22:54;;;;;;;3.83;3.20;;;25.80;99.90;;;;;;5093598;28;20454;-70
2023/06/23 13:25:20;;;;;;;3.63;3.37;;;25.70;99.90;;;;;;5087578;28;20229;-69